createdAt,value
2018-09-12T00:00:40.418Z,100431.38
2018-09-12T00:03:08.902Z,100426.41
2018-09-12T00:05:37.722Z,100427.39
2018-09-12T00:08:06.194Z,100421.09
2018-09-12T00:10:34.883Z,100410.22
2018-09-12T00:13:03.394Z,100417.69
2018-09-12T00:15:32.259Z,100421.33
2018-09-12T00:18:00.822Z,100426.64
2018-09-12T00:20:29.414Z,100423.98
2018-09-12T00:22:58.178Z,100437.52
2018-09-12T00:25:26.834Z,100428.67
2018-09-12T00:27:55.785Z,100416.92
2018-09-12T00:30:24.254Z,100436.55
2018-09-12T00:32:52.947Z,100431.09
2018-09-12T00:35:21.553Z,100433.40
2018-09-12T00:37:50.354Z,100430.22
2018-09-12T00:40:18.854Z,100439.88
2018-09-12T00:42:47.611Z,100430.97
2018-09-12T00:45:16.209Z,100433.23
2018-09-12T00:47:44.782Z,100439.88
2018-09-12T00:50:13.476Z,100437.45
2018-09-12T00:52:42.071Z,100444.49
2018-09-12T00:55:10.809Z,100444.37
2018-09-12T00:57:39.345Z,100435.90
2018-09-12T01:00:07.887Z,100439.88
2018-09-12T01:02:36.490Z,100446.53
2018-09-12T01:05:05.046Z,100453.19
2018-09-12T01:07:33.770Z,100450.53
2018-09-12T01:10:02.309Z,100443.87
2018-09-12T01:12:31.102Z,100442.55
2018-09-12T01:14:59.630Z,100432.77
2018-09-12T01:17:28.345Z,100431.80
2018-09-12T01:19:56.882Z,100423.93
2018-09-12T01:22:25.510Z,100422.12
2018-09-12T01:24:54.069Z,100417.67
2018-09-12T01:27:22.725Z,100424.04
2018-09-12T01:29:51.509Z,100418.12
2018-09-12T01:32:20.093Z,100426.17
2018-09-12T01:34:48.730Z,100428.99
2018-09-12T01:37:17.319Z,100435.14
2018-09-12T01:39:45.905Z,100430.91
2018-09-12T01:42:14.398Z,100427.27
2018-09-12T01:44:43.038Z,100447.44
2018-09-12T01:47:11.742Z,100432.93
2018-09-12T01:49:40.277Z,100436.45
2018-09-12T01:52:09.199Z,100444.78
2018-09-12T01:54:37.862Z,100438.88
2018-09-12T01:57:06.489Z,100447.84
2018-09-12T01:59:35.067Z,100451.20
2018-09-12T02:02:03.642Z,100443.23
2018-09-12T02:04:32.284Z,100359.78
2018-09-12T02:07:00.810Z,100438.66
2018-09-12T02:09:29.717Z,100437.69
2018-09-12T02:11:58.340Z,100439.41
2018-09-12T02:14:26.939Z,100440.34
2018-09-12T02:16:55.514Z,100439.01
2018-09-12T02:19:24.119Z,100435.99
2018-09-12T02:21:52.918Z,100429.81
2018-09-12T02:24:21.664Z,100423.67
2018-09-12T02:26:50.662Z,100429.22
2018-09-12T02:29:19.133Z,100431.02
2018-09-12T02:31:47.746Z,100417.48
2018-09-12T02:34:16.425Z,100424.84
2018-09-12T02:36:45.022Z,100417.83
2018-09-12T02:39:13.591Z,100417.48
2018-09-12T02:41:42.172Z,100425.06
2018-09-12T02:44:11.270Z,100421.08
2018-09-12T02:46:39.863Z,100425.68
2018-09-12T02:49:08.403Z,100399.25
2018-09-12T02:51:36.891Z,100418.29
2018-09-12T02:54:05.679Z,100423.25
2018-09-12T02:56:34.298Z,100415.63
2018-09-12T02:59:02.930Z,100413.72
2018-09-12T03:01:31.406Z,100409.73
2018-09-12T03:04:16.486Z,100412.74
2018-09-12T03:06:44.850Z,100409.00
2018-09-12T03:09:13.744Z,100406.34
2018-09-12T03:11:42.264Z,100395.59
2018-09-12T03:14:10.894Z,100384.95
2018-09-12T03:16:39.374Z,100394.65
2018-09-12T03:19:08.009Z,100393.67
2018-09-12T03:21:36.679Z,100389.09
2018-09-12T03:24:05.266Z,100386.16
2018-09-12T03:26:34.178Z,100379.05
2018-09-12T03:29:02.683Z,100367.66
2018-09-12T03:31:31.342Z,100370.32
2018-09-12T03:33:59.923Z,100363.67
2018-09-12T03:36:28.542Z,100368.28
2018-09-12T03:38:57.113Z,100364.65
2018-09-12T03:41:25.762Z,100360.19
2018-09-12T03:43:54.757Z,100360.08
2018-09-12T03:46:23.334Z,100357.77
2018-09-12T03:48:52.011Z,100356.95
2018-09-12T03:51:20.497Z,100351.41
2018-09-12T03:53:49.199Z,100345.11
2018-09-12T03:56:17.738Z,100334.34
2018-09-12T03:58:46.351Z,100348.52
2018-09-12T04:01:14.863Z,100302.50
2018-09-12T04:03:43.455Z,100346.83
2018-09-12T04:06:12.303Z,100338.34
2018-09-12T04:08:40.791Z,100336.43
2018-09-12T04:11:09.701Z,100336.78
2018-09-12T04:13:38.234Z,100341.52
2018-09-12T04:16:06.938Z,100324.58
2018-09-12T04:18:35.524Z,100339.48
2018-09-12T04:21:04.041Z,100332.67
2018-09-12T04:23:33.218Z,100348.47
2018-09-12T04:26:01.787Z,100345.64
2018-09-12T04:28:30.586Z,100349.02
2018-09-12T04:30:59.214Z,100351.27
2018-09-12T04:33:28.158Z,100246.92
2018-09-12T04:35:56.661Z,100343.01
2018-09-12T04:38:25.242Z,100336.98
2018-09-12T04:40:53.724Z,100327.34
2018-09-12T04:43:22.482Z,100325.44
2018-09-12T04:45:50.951Z,100330.30
2018-09-12T04:48:19.586Z,100316.51
2018-09-12T04:50:48.474Z,100267.27
2018-09-12T04:53:16.939Z,100331.05
2018-09-12T04:55:45.762Z,100287.48
2018-09-12T04:58:14.224Z,100318.98
2018-09-12T05:00:42.861Z,100320.43
2018-09-12T05:03:11.342Z,100321.91
2018-09-12T05:05:39.874Z,100322.63
2018-09-12T05:08:08.434Z,100282.92
2018-09-12T05:10:37.018Z,100323.98
2018-09-12T05:13:05.884Z,100292.23
2018-09-12T05:15:34.378Z,100324.46
2018-09-12T05:18:03.218Z,100324.11
2018-09-12T05:20:31.850Z,100310.80
2018-09-12T05:23:00.614Z,100310.56
2018-09-12T05:25:29.250Z,100304.53
2018-09-12T05:27:57.718Z,100307.08
2018-09-12T05:30:26.300Z,100302.70
2018-09-12T05:32:54.770Z,100305.87
2018-09-12T05:35:23.800Z,100290.13
2018-09-12T05:37:52.343Z,100290.88
2018-09-12T05:40:21.837Z,100301.39
2018-09-12T05:42:50.450Z,100291.49
2018-09-12T05:45:19.143Z,100301.89
2018-09-12T05:47:47.716Z,100292.08
2018-09-12T05:50:16.383Z,100290.27
2018-09-12T05:52:45.279Z,100263.40
2018-09-12T05:55:13.858Z,100277.22
2018-09-12T05:57:42.762Z,100274.55
2018-09-12T06:00:11.518Z,100272.84
2018-09-12T06:02:40.246Z,100269.33
2018-09-12T06:05:08.722Z,100272.97
2018-09-12T06:07:39.887Z,100286.88
2018-09-12T06:10:08.542Z,100280.34
2018-09-12T06:12:37.224Z,100287.71
2018-09-12T06:15:06.083Z,100289.55
2018-09-12T06:17:35.632Z,100281.06
2018-09-12T06:20:04.431Z,100282.88
2018-09-12T06:22:33.598Z,100288.81
2018-09-12T06:25:02.779Z,100291.71
2018-09-12T06:27:31.708Z,100288.31
2018-09-12T06:30:00.257Z,100297.73
2018-09-12T06:32:28.882Z,100307.67
2018-09-12T06:34:57.618Z,100303.89
2018-09-12T06:37:30.665Z,100313.19
2018-09-12T06:39:59.303Z,100320.31
2018-09-12T06:42:27.814Z,100340.25
2018-09-12T06:45:01.783Z,100322.73
2018-09-12T06:47:31.355Z,100327.42
2018-09-12T06:49:59.866Z,100325.92
2018-09-12T06:52:28.730Z,100347.41
2018-09-12T06:54:57.340Z,100349.06
2018-09-12T06:57:25.857Z,100365.02
2018-09-12T06:59:55.102Z,100358.59
2018-09-12T07:02:23.597Z,100358.84
2018-09-12T07:04:52.306Z,100348.33
2018-09-12T07:07:20.786Z,100361.03
2018-09-12T07:09:49.462Z,100366.34
2018-09-12T07:12:18.786Z,100357.40
2018-09-12T07:14:48.371Z,100355.36
2018-09-12T07:17:21.154Z,100348.21
2018-09-12T07:19:53.250Z,100364.79
2018-09-12T07:22:26.124Z,100354.79
2018-09-12T07:24:59.795Z,100363.13
2018-09-12T07:27:32.247Z,100351.40
2018-09-12T07:30:09.077Z,100353.25
2018-09-12T07:32:39.879Z,100353.73
2018-09-12T07:35:10.014Z,100370.25
2018-09-12T07:37:41.907Z,100373.03
2018-09-12T07:40:11.843Z,100333.08
2018-09-12T07:42:45.398Z,100374.65
2018-09-12T07:45:20.863Z,100381.54
2018-09-12T07:47:58.769Z,100385.17
2018-09-12T07:50:28.130Z,100402.72
2018-09-12T07:53:01.244Z,100386.91
2018-09-12T07:55:31.179Z,100367.30
2018-09-12T07:58:04.377Z,100378.42
2018-09-12T08:00:35.413Z,100360.14
2018-09-12T08:03:07.650Z,100359.08
2018-09-12T08:05:37.259Z,100362.33
2018-09-12T08:08:11.458Z,100363.78
2018-09-12T08:10:43.283Z,100360.03
2018-09-12T08:13:14.595Z,100372.27
2018-09-12T08:15:46.990Z,100385.73
2018-09-12T08:18:16.847Z,100378.12
2018-09-12T08:20:46.790Z,100379.94
2018-09-12T08:23:15.617Z,100387.35
2018-09-12T08:25:44.114Z,100383.97
2018-09-12T08:28:12.823Z,100396.56
2018-09-12T08:30:42.651Z,100403.37
2018-09-12T08:33:11.394Z,100418.25
2018-09-12T08:35:40.151Z,100426.25
2018-09-12T08:38:08.715Z,100433.98
2018-09-12T08:40:37.355Z,100396.03
2018-09-12T08:43:05.990Z,100431.91
2018-09-12T08:45:36.811Z,100385.47
2018-09-12T08:48:05.698Z,100441.16
2018-09-12T08:50:34.595Z,100447.11
2018-09-12T08:53:07.263Z,100432.70
2018-09-12T08:55:35.902Z,100432.36
2018-09-12T08:58:04.476Z,100438.89
2018-09-12T09:00:36.514Z,100448.56
2018-09-12T09:03:06.711Z,100454.52
2018-09-12T09:05:35.369Z,100464.77
2018-09-12T09:08:03.950Z,100440.81
2018-09-12T09:10:32.543Z,100449.27
2018-09-12T09:13:01.171Z,100451.53
2018-09-12T09:15:32.874Z,100440.53
2018-09-12T09:18:01.531Z,100455.29
2018-09-12T09:20:30.140Z,100462.45
2018-09-12T09:23:02.697Z,100458.47
2018-09-12T09:25:31.670Z,100465.67
2018-09-12T09:28:00.259Z,100460.26
2018-09-12T09:30:32.138Z,100463.78
2018-09-12T09:33:00.975Z,100473.22
2018-09-12T09:35:30.157Z,100462.91
2018-09-12T09:38:02.146Z,100468.86
2018-09-12T09:40:30.670Z,100484.02
2018-09-12T09:42:59.525Z,100476.40
2018-09-12T09:45:28.113Z,100468.27
2018-09-12T09:47:56.795Z,100468.50
2018-09-12T09:50:25.491Z,100470.30
2018-09-12T09:52:54.038Z,100461.19
2018-09-12T09:55:22.602Z,100456.45
2018-09-12T09:57:51.090Z,100466.36
2018-09-12T10:00:24.984Z,100473.55
2018-09-12T10:02:58.787Z,100469.03
2018-09-12T10:05:32.590Z,100478.88
2018-09-12T10:09:05.991Z,100480.81
2018-09-12T10:11:34.682Z,100467.67
2018-09-12T10:14:03.242Z,100461.20
2018-09-12T10:16:31.861Z,100470.86
2018-09-12T10:19:00.581Z,100475.97
2018-09-12T10:21:29.058Z,100475.34
2018-09-12T10:23:57.898Z,100482.23
2018-09-12T10:26:26.482Z,100479.44
2018-09-12T10:28:55.330Z,100423.27
2018-09-12T10:31:23.955Z,100498.05
2018-09-12T10:33:52.750Z,100493.64
2018-09-12T10:36:21.427Z,100487.22
2018-09-12T10:38:50.860Z,100509.91
2018-09-12T10:41:20.133Z,100489.34
2018-09-12T10:43:48.780Z,100515.91
2018-09-12T10:46:17.427Z,100480.31
2018-09-12T10:48:46.095Z,100514.75
2018-09-12T10:51:15.926Z,100525.80
2018-09-12T10:53:45.501Z,100524.16
2018-09-12T10:56:14.203Z,100528.34
2018-09-12T10:58:42.674Z,100535.18
2018-09-12T11:01:11.498Z,100543.20
2018-09-12T11:03:40.078Z,100533.89
2018-09-12T11:06:08.928Z,100558.68
2018-09-12T11:08:37.626Z,100566.66
2018-09-12T11:11:06.301Z,100560.88
2018-09-12T11:13:35.291Z,100569.36
2018-09-12T11:16:03.794Z,100576.00
2018-09-12T11:18:32.560Z,100518.02
2018-09-12T11:21:01.074Z,100567.31
2018-09-12T11:23:29.719Z,100572.51
2018-09-12T11:25:58.198Z,100576.58
2018-09-12T11:28:27.359Z,100579.34
2018-09-12T11:30:55.877Z,100563.07
2018-09-12T11:33:24.406Z,100574.36
2018-09-12T11:35:53.794Z,100499.59
2018-09-12T11:38:23.310Z,100575.53
2018-09-12T11:40:52.174Z,100497.83
2018-09-12T11:43:20.650Z,100578.33
2018-09-12T11:45:49.122Z,100575.27
2018-09-12T11:48:17.854Z,100576.44
2018-09-12T11:50:48.648Z,100576.83
2018-09-12T11:53:17.249Z,100580.84
2018-09-12T11:55:45.866Z,100586.69
2018-09-12T11:58:14.442Z,100585.05
2018-09-12T12:00:43.090Z,100596.00
2018-09-12T12:03:12.074Z,100602.12
2018-09-12T12:05:40.654Z,100587.39
2018-09-12T12:08:09.541Z,100593.55
2018-09-12T12:10:40.273Z,100600.84
2018-09-12T12:13:08.950Z,100592.22
2018-09-12T12:15:38.160Z,100589.28
2018-09-12T12:18:06.742Z,100601.44
2018-09-12T12:20:35.246Z,100610.88
2018-09-12T12:23:03.893Z,100602.73
2018-09-12T12:25:32.321Z,100599.80
2018-09-12T12:28:00.876Z,100622.82
2018-09-12T12:30:30.102Z,100630.30
2018-09-12T12:32:58.751Z,100626.55
2018-09-12T12:35:27.685Z,100627.07
2018-09-12T12:37:57.657Z,100621.38
2018-09-12T12:40:26.507Z,100625.98
2018-09-12T12:42:55.482Z,100642.12
2018-09-12T12:45:26.440Z,100641.75
2018-09-12T12:47:54.958Z,100639.80
2018-09-12T12:50:24.218Z,100642.23
2018-09-12T12:52:53.147Z,100631.19
2018-09-12T12:55:21.863Z,100637.97
2018-09-12T12:57:50.429Z,100643.79
2018-09-12T13:00:18.967Z,100638.45
2018-09-12T13:02:47.683Z,100628.02
2018-09-12T13:05:16.267Z,100649.48
2018-09-12T13:07:45.470Z,100650.33
2018-09-12T13:10:13.959Z,100653.48
2018-09-12T13:12:42.736Z,100659.41
2018-09-12T13:15:11.233Z,100651.66
2018-09-12T13:17:41.421Z,100653.23
2018-09-12T13:20:09.946Z,100657.34
2018-09-12T13:22:38.647Z,100653.94
2018-09-12T13:25:07.260Z,100644.61
2018-09-12T13:27:35.794Z,100656.65
2018-09-12T13:30:04.742Z,100660.89
2018-09-12T13:32:33.303Z,100665.50
2018-09-12T13:35:02.312Z,100663.45
2018-09-12T13:37:30.841Z,100653.98
2018-09-12T13:39:59.482Z,100651.69
2018-09-12T13:42:28.182Z,100652.31
2018-09-12T13:44:56.710Z,100674.60
2018-09-12T13:47:25.358Z,100659.09
2018-09-12T13:49:53.946Z,100676.66
2018-09-12T13:52:22.919Z,100682.11
2018-09-12T13:54:51.404Z,100667.92
2018-09-12T13:57:20.197Z,100678.25
2018-09-12T13:59:48.970Z,100672.19
2018-09-12T14:02:17.611Z,100677.78
2018-09-12T14:04:46.251Z,100681.16
2018-09-12T14:07:14.832Z,100683.47
2018-09-12T14:09:43.519Z,100686.73
2018-09-12T14:12:12.805Z,100690.86
2018-09-12T14:14:42.018Z,100696.63
2018-09-12T14:17:10.506Z,100707.57
2018-09-12T14:19:39.146Z,100715.31
2018-09-12T14:22:07.723Z,100705.81
2018-09-12T14:24:36.372Z,100701.77
2018-09-12T14:27:05.003Z,100649.08
2018-09-12T14:29:33.614Z,100697.29
2018-09-12T14:32:02.644Z,100688.69
2018-09-12T14:34:31.209Z,100699.84
2018-09-12T14:37:00.054Z,100683.59
2018-09-12T14:39:28.567Z,100698.63
2018-09-12T14:41:57.183Z,100709.55
2018-09-12T14:44:28.491Z,100701.05
2018-09-12T14:46:57.237Z,100712.70
2018-09-12T14:49:25.709Z,100717.03
2018-09-12T14:51:54.336Z,100736.95
2018-09-12T14:54:22.890Z,100724.86
2018-09-12T14:56:51.370Z,100734.81
2018-09-12T14:59:20.210Z,100730.16
2018-09-12T15:01:48.921Z,100728.77
2018-09-12T15:04:18.079Z,100729.05
2018-09-12T15:06:46.603Z,100736.30
2018-09-12T15:09:15.278Z,100729.81
2018-09-12T15:11:43.934Z,100722.42
2018-09-12T15:14:13.503Z,100717.73
2018-09-12T15:16:42.960Z,100720.86
2018-09-12T15:19:11.466Z,100720.59
2018-09-12T15:21:40.018Z,100727.69
2018-09-12T15:24:09.809Z,100724.01
2018-09-12T15:26:38.641Z,100726.52
2018-09-12T15:29:07.217Z,100725.44
2018-09-12T15:31:36.787Z,100724.34
2018-09-12T15:34:06.094Z,100727.00
2018-09-12T15:36:34.799Z,100728.28
2018-09-12T15:39:03.430Z,100731.91
2018-09-12T15:41:32.206Z,100734.93
2018-09-12T15:44:00.650Z,100733.15
2018-09-12T15:46:29.258Z,100731.13
2018-09-12T15:48:58.084Z,100738.44
2018-09-12T15:51:26.575Z,100741.81
2018-09-12T15:53:55.306Z,100763.89
2018-09-12T15:56:23.988Z,100753.09
2018-09-12T15:58:52.559Z,100745.58
2018-09-12T16:01:21.024Z,100748.87
2018-09-12T16:03:49.700Z,100749.17
2018-09-12T16:06:18.178Z,100755.33
2018-09-12T16:08:46.693Z,100746.73
2018-09-12T16:11:15.482Z,100702.30
2018-09-12T16:13:44.125Z,100743.52
2018-09-12T16:16:12.931Z,100753.45
2018-09-12T16:18:41.510Z,100760.25
2018-09-12T16:21:10.118Z,100764.03
2018-09-12T16:23:38.614Z,100757.48
2018-09-12T16:26:07.186Z,100758.23
2018-09-12T16:28:35.834Z,100762.94
2018-09-12T16:31:04.334Z,100758.48
2018-09-12T16:33:32.949Z,100720.58
2018-09-12T16:36:01.682Z,100769.48
2018-09-12T16:38:30.218Z,100761.00
2018-09-12T16:40:58.755Z,100771.44
2018-09-12T16:43:27.241Z,100778.98
2018-09-12T16:45:56.026Z,100798.80
2018-09-12T16:48:24.506Z,100785.86
2018-09-12T16:50:53.338Z,100789.97
2018-09-12T16:53:21.968Z,100797.92
2018-09-12T16:55:51.228Z,100800.99
2018-09-12T16:58:19.754Z,100791.89
2018-09-12T17:00:48.290Z,100803.12
2018-09-12T17:03:17.027Z,100804.92
2018-09-12T17:05:45.559Z,100827.30
2018-09-12T17:08:14.307Z,100777.18
2018-09-12T17:10:43.050Z,100820.28
2018-09-12T17:13:11.988Z,100824.74
2018-09-12T17:15:40.560Z,100832.62
2018-09-12T17:18:09.154Z,100833.59
2018-09-12T17:20:37.650Z,100843.13
2018-09-12T17:23:06.318Z,100830.23
2018-09-12T17:25:35.046Z,100818.04
2018-09-12T17:28:03.535Z,100835.59
2018-09-12T17:30:32.210Z,100827.93
2018-09-12T17:33:00.934Z,100830.76
2018-09-12T17:35:29.661Z,100829.58
2018-09-12T17:37:58.271Z,100831.88
2018-09-12T17:40:26.819Z,100832.45
2018-09-12T17:42:56.479Z,100838.95
2018-09-12T17:45:25.030Z,100848.27
2018-09-12T17:47:54.041Z,100841.25
2018-09-12T17:50:23.172Z,100844.88
2018-09-12T17:52:52.258Z,100860.84
2018-09-12T17:55:20.874Z,100856.56
2018-09-12T17:57:49.852Z,100857.17
2018-09-12T18:00:18.411Z,100858.71
2018-09-12T18:02:47.126Z,100881.79
2018-09-12T18:05:15.713Z,100868.75
2018-09-12T18:07:44.286Z,100880.00
2018-09-12T18:10:13.014Z,100882.00
2018-09-12T18:12:41.487Z,100890.95
2018-09-12T18:15:10.427Z,100890.95
2018-09-12T18:17:39.060Z,100872.33
2018-09-12T18:20:07.756Z,100875.91
2018-09-12T18:22:36.422Z,100886.14
2018-09-12T18:25:05.070Z,100895.41
2018-09-12T18:27:33.665Z,100885.82
2018-09-12T18:30:02.227Z,100901.87
2018-09-12T18:32:31.590Z,100898.61
2018-09-12T18:35:00.184Z,100901.86
2018-09-12T18:37:29.310Z,100900.52
2018-09-12T18:39:57.996Z,100896.17
2018-09-12T18:42:26.931Z,100889.53
2018-09-12T18:44:56.130Z,100891.23
2018-09-12T18:47:25.026Z,100895.61
2018-09-12T18:49:54.150Z,100897.21
2018-09-12T18:52:23.111Z,100900.13
2018-09-12T18:54:51.655Z,100900.73
2018-09-12T18:57:20.534Z,100902.72
2018-09-12T18:59:49.078Z,100903.11
2018-09-12T19:02:17.719Z,100901.61
2018-09-12T19:04:46.283Z,100907.95
2018-09-12T19:07:14.968Z,100903.78
2018-09-12T19:09:43.632Z,100899.80
2018-09-12T19:12:12.850Z,100902.92
2018-09-12T19:14:41.638Z,100914.78
2018-09-12T19:17:10.195Z,100913.56
2018-09-12T19:19:39.138Z,100915.42
2018-09-12T19:22:08.352Z,100906.80
2018-09-12T19:24:37.242Z,100813.01
2018-09-12T19:27:05.838Z,100905.28
2018-09-12T19:29:34.624Z,100916.17
2018-09-12T19:32:03.265Z,100868.30
2018-09-12T19:34:31.832Z,100912.27
2018-09-12T19:37:00.430Z,100921.37
2018-09-12T19:39:28.914Z,100921.54
2018-09-12T19:41:57.554Z,100931.21
2018-09-12T19:44:25.987Z,100924.66
2018-09-12T19:46:54.776Z,100861.66
2018-09-12T19:49:24.069Z,100931.61
2018-09-12T19:51:52.667Z,100950.77
2018-09-12T19:54:21.255Z,100945.63
2018-09-12T19:56:49.848Z,100942.05
2018-09-12T19:59:18.805Z,100950.22
2018-09-12T20:01:47.327Z,100942.81
2018-09-12T20:04:16.035Z,100905.34
2018-09-12T20:06:44.648Z,100942.22
2018-09-12T20:09:13.254Z,100949.63
2018-09-12T20:11:42.111Z,100952.28
2018-09-12T20:14:11.467Z,100951.92
2018-09-12T20:16:40.111Z,100959.89
2018-09-12T20:19:08.789Z,100967.47
2018-09-12T20:21:37.546Z,100967.47
2018-09-12T20:24:06.202Z,100960.27
2018-09-12T20:26:34.952Z,100913.20
2018-09-12T20:29:03.650Z,100952.66
2018-09-12T20:31:32.168Z,100964.61
2018-09-12T20:34:00.689Z,100963.28
2018-09-12T20:36:29.376Z,100973.55
2018-09-12T20:38:57.968Z,100954.58
2018-09-12T20:41:26.486Z,100965.58
2018-09-12T20:43:55.466Z,100872.68
2018-09-12T20:46:24.035Z,100964.81
2018-09-12T20:48:52.807Z,100972.79
2018-09-12T20:51:21.387Z,100959.70
2018-09-12T20:53:49.903Z,100965.38
2018-09-12T20:56:18.539Z,100968.05
2018-09-12T20:58:47.028Z,100970.33
2018-09-12T21:01:15.647Z,100974.32
2018-09-12T21:03:44.302Z,100970.33
2018-09-12T21:06:12.987Z,100981.53
2018-09-12T21:08:41.506Z,100975.35
2018-09-12T21:11:10.314Z,100977.55
2018-09-12T21:13:38.941Z,100976.41
2018-09-12T21:16:07.590Z,100979.94
2018-09-12T21:18:36.114Z,100984.95
2018-09-12T21:21:04.759Z,100991.23
2018-09-12T21:23:33.477Z,100988.94
2018-09-12T21:26:01.959Z,101001.56
2018-09-12T21:28:30.847Z,100988.73
2018-09-12T21:30:59.481Z,100991.40
2018-09-12T21:33:28.413Z,100942.81
2018-09-12T21:35:56.914Z,100993.52
2018-09-12T21:38:25.666Z,100981.16
2018-09-12T21:40:54.389Z,100996.27
2018-09-12T21:43:22.910Z,100993.12
2018-09-12T21:45:51.529Z,100997.51
2018-09-12T21:48:20.039Z,100992.75
2018-09-12T21:50:48.809Z,100993.72
2018-09-12T21:53:18.239Z,100998.23
2018-09-12T21:55:46.968Z,100899.53
2018-09-12T21:58:15.530Z,101001.95
2018-09-12T22:00:44.194Z,101014.38
2018-09-12T22:03:12.750Z,101013.61
2018-09-12T22:05:41.274Z,101014.76
2018-09-12T22:08:09.997Z,101004.78
2018-09-12T22:10:38.599Z,101023.79
2018-09-12T22:13:07.366Z,101017.97
2018-09-12T22:15:35.886Z,101018.56
2018-09-12T22:18:04.622Z,101020.27
2018-09-12T22:20:33.258Z,101018.38
2018-09-12T22:23:01.835Z,101019.98
2018-09-12T22:25:30.546Z,101018.75
2018-09-12T22:27:59.759Z,101017.52
2018-09-12T22:30:28.250Z,101007.92
2018-09-12T22:32:57.018Z,101024.25
2018-09-12T22:35:25.797Z,101021.03
2018-09-12T22:37:54.490Z,101016.47
2018-09-12T22:40:23.190Z,100955.19
2018-09-12T22:42:51.817Z,101026.05
2018-09-12T22:45:20.658Z,101023.48
2018-09-12T22:47:49.134Z,101030.31
2018-09-12T22:50:17.792Z,101019.30
2018-09-12T22:52:46.250Z,101019.88
2018-09-12T22:55:14.725Z,101024.23
2018-09-12T22:57:43.326Z,101021.78
2018-09-12T23:00:11.999Z,101019.69
2018-09-12T23:02:40.830Z,101015.72
2018-09-12T23:05:09.408Z,100995.87
2018-09-12T23:07:38.214Z,101026.89
2018-09-12T23:10:06.753Z,101022.34
2018-09-12T23:12:35.358Z,101020.75
2018-09-12T23:15:04.191Z,101028.81
2018-09-12T23:17:32.701Z,101024.52
2018-09-12T23:20:01.382Z,101030.70
2018-09-12T23:22:30.002Z,101019.98
2018-09-12T23:24:58.756Z,101017.22
2018-09-12T23:27:27.488Z,101021.02
2018-09-12T23:29:56.146Z,101030.88
2018-09-12T23:32:24.710Z,101021.58
2018-09-12T23:34:53.206Z,101016.27
2018-09-12T23:37:21.814Z,100949.13
2018-09-12T23:39:50.347Z,101021.39
2018-09-12T23:42:19.155Z,101037.33
2018-09-12T23:44:47.832Z,101025.20
2018-09-12T23:47:16.804Z,101026.72
2018-09-12T23:49:45.396Z,101029.01
2018-09-12T23:52:14.310Z,101039.64
2018-09-12T23:54:42.774Z,101028.05
2018-09-12T23:57:11.338Z,101037.34
2018-09-12T23:59:39.933Z,101028.41
